Aneta, ND

11:35 PM CST on March 02, 2015 (GMT -0600)
Larimore | Change Station
CLOSE
Current Station
Personal Weather Station
Location: Larimore, ND
Elevation: 1125 ft
Nearby Weather Stations
Active Advisory: Wind Advisory

Elev 1125 ft 47.91 °N, 97.63 °W | Updated 10 minutes ago

Clear
Clear
23.0 °F
Feels Like 23 °F
N
2.7
Wind Variable Wind from SE

Today
High -- | Low -- °F
--% Chance of Precip.
Yesterday
High -- | Low -- °F
Precip. -- in
7:10 AM 6:17 PM
Waxing Gibbous, 94% visible
Pressure 29.81 in
Visibility 10.0 miles
Clouds Clear
Windchill 23 °F
Dew Point 18 °F
Humidity 82%
Rainfall 0.00 in
Snow Depth Not available.
UV 0 out of 12
Pollen .10 out of 12
Air Quality Not available.
Flu Activity Not available.
METAR KRDR 030458Z AUTO 18013KT 10SM CLR M04/M08 A2975 RMK AO2 SLP093 T10401080

More Conditions Fewer Conditions

Pressure 29.81 in
Visibility 10.0 miles
Clouds Clear
Windchill 23 °F
Dew Point 18 °F
Humidity 82%
Rainfall 0.00 in
Snow Depth Not available.
UV 0 out of 12
Pollen .10 out of 12
Air Quality Not available.
Flu Activity Not available.
METAR KRDR 030458Z AUTO 18013KT 10SM CLR M04/M08 A2975 RMK AO2 SLP093 T10401080

More Conditions Fewer Conditions

10-Day Weather Forecast

Almanac

Astronomy

Mar. 02, 2015 Rise Set
Actual Time
Civil Twilight
Nautical Twilight
Astronomical Twilight
Moon
Length of Visible Light
Length of Day
Tomorrow will be .
, % of the Moon is Illuminated

Today's Extremes

State Highs State Lows

Community

WunderPhotos

Upload Photos

1,802,066 photos uploaded!

WunderBlogs® & News

Nearby

Air Quality

  Air Quality AQ Index Pollutant
Not available.

Snow Depth

Station Depth Elevation

Earthquake Activity

City Distance Mag. Time & Date
Minimum magnitude displayed is 2.5.

Coastal Water Temperatures

Place Temperature

Nearby Weather Stations

Wind Advisory
Statement as of 10:02 PM CST on March 02, 2015

... Wind Advisory remains in effect from 3 am to 6 PM CST
Tuesday...

* timing... late tonight through Tuesday.

* Winds... northwest winds 30 to 35 mph with gusts to near 50 mph
possible.

* Impacts... there could be some localized blowing snow in open
country.

Precautionary/preparedness actions...

A Wind Advisory means that sustained winds of 30 mph or frequent
gusts to 45 mph are expected. Winds this strong can make driving
difficult... especially for high profile vehicles. Use extra
caution.